createdAt,value
2023-05-11T00:04:24.993Z,100919.77
2023-05-11T00:09:28.663Z,100914.79
2023-05-11T00:14:32.175Z,100910.69
2023-05-11T00:19:35.775Z,100908.98
2023-05-11T00:24:39.541Z,100911.13
2023-05-11T00:29:43.364Z,100912.40
2023-05-11T00:34:47.340Z,100915.73
2023-05-11T00:39:50.903Z,100919.27
2023-05-11T00:44:54.346Z,100914.29
2023-05-11T00:50:00.309Z,100913.14
2023-05-11T00:55:03.938Z,100909.02
2023-05-11T01:00:22.944Z,100908.88
2023-05-11T01:05:36.423Z,100905.30
2023-05-11T01:10:44.808Z,100905.88
2023-05-11T01:15:54.013Z,100900.87
2023-05-11T01:21:03.403Z,100901.63
2023-05-11T01:26:54.976Z,100903.39
2023-05-11T01:32:03.178Z,100899.45
2023-05-11T01:37:21.495Z,100896.17
2023-05-11T01:42:32.272Z,100896.75
2023-05-11T01:47:38.975Z,100893.66
2023-05-11T01:52:44.331Z,100890.61
2023-05-11T01:57:52.127Z,100893.27
2023-05-11T02:02:59.301Z,100892.45
2023-05-11T02:08:06.018Z,100896.88
2023-05-11T02:13:10.926Z,100891.87
2023-05-11T02:18:16.018Z,100895.38
2023-05-11T02:23:21.670Z,100895.95
2023-05-11T02:28:25.228Z,100896.49
2023-05-11T02:33:35.065Z,100894.09
2023-05-11T02:38:39.690Z,100895.86
2023-05-11T02:43:47.614Z,100900.95
2023-05-11T02:48:58.284Z,100902.55
2023-05-11T02:54:04.059Z,100904.67
2023-05-11T02:59:09.438Z,100906.09
2023-05-11T03:04:16.481Z,100905.41
2023-05-11T03:09:20.044Z,100906.98
2023-05-11T03:14:24.121Z,100905.59
2023-05-11T03:19:43.107Z,100911.85
2023-05-11T03:24:47.848Z,100910.66
2023-05-11T03:29:56.151Z,100916.72
2023-05-11T03:35:00.300Z,100917.22
2023-05-11T03:40:30.052Z,100917.73
2023-05-11T03:45:35.534Z,100924.34
2023-05-11T03:50:41.153Z,100928.81
2023-05-11T03:55:57.197Z,100927.73
2023-05-11T04:01:00.812Z,100934.98
2023-05-11T04:06:14.541Z,100938.23
2023-05-11T04:11:18.627Z,100940.91
2023-05-11T04:16:22.330Z,100940.65
2023-05-11T04:21:33.737Z,100936.02
2023-05-11T04:26:37.552Z,100939.14
2023-05-11T04:31:43.570Z,100940.20
2023-05-11T04:36:51.303Z,100937.36
2023-05-11T04:41:55.241Z,100939.29
2023-05-11T04:47:03.550Z,100937.70
2023-05-11T04:52:18.629Z,100938.95
2023-05-11T04:57:28.160Z,100942.80
2023-05-11T05:02:34.254Z,100946.36
2023-05-11T05:07:48.896Z,100950.32
2023-05-11T05:13:01.815Z,100949.33
2023-05-11T05:18:07.472Z,100949.96
2023-05-11T05:23:14.011Z,100956.39
2023-05-11T05:28:17.778Z,100953.83
2023-05-11T05:33:22.183Z,100958.27
2023-05-11T05:38:26.009Z,100962.13
2023-05-11T05:43:29.931Z,100963.98
2023-05-11T05:48:34.212Z,100968.25
2023-05-11T05:53:38.247Z,100970.15
2023-05-11T05:58:43.483Z,100970.05
2023-05-11T06:03:47.863Z,100969.27
2023-05-11T06:08:51.830Z,100964.48
2023-05-11T06:13:55.252Z,100964.57
2023-05-11T06:19:01.717Z,100966.60
2023-05-11T06:24:05.865Z,100971.17
2023-05-11T06:29:11.613Z,100968.79
2023-05-11T06:34:15.244Z,100974.51
2023-05-11T06:39:18.623Z,100967.61
2023-05-11T06:44:21.989Z,100970.33
2023-05-11T06:49:27.428Z,100973.15
2023-05-11T06:54:31.359Z,100977.28
2023-05-11T06:59:34.762Z,100977.95
2023-05-11T07:04:38.035Z,100979.55
2023-05-11T07:09:42.093Z,100979.95
2023-05-11T07:14:45.856Z,100977.41
2023-05-11T07:19:51.428Z,100970.14
2023-05-11T07:24:55.159Z,100967.92
2023-05-11T07:29:58.476Z,100970.88
2023-05-11T07:35:01.985Z,100969.59
2023-05-11T07:40:06.790Z,100965.27
2023-05-11T07:45:10.647Z,100964.48
2023-05-11T07:50:14.109Z,100964.83
2023-05-11T07:55:20.408Z,100962.94
2023-05-11T08:00:24.446Z,100963.41
2023-05-11T08:05:33.321Z,100967.17
2023-05-11T08:10:37.287Z,100967.36
2023-05-11T08:15:40.546Z,100961.05
2023-05-11T08:20:44.129Z,100963.90
2023-05-11T08:25:52.063Z,100954.11
2023-05-11T08:30:57.093Z,100949.09
2023-05-11T08:36:00.631Z,100952.42
2023-05-11T08:41:05.058Z,100945.29
2023-05-11T08:46:10.046Z,100945.48
2023-05-11T08:51:13.464Z,100939.19
2023-05-11T08:56:17.481Z,100937.64
2023-05-11T09:01:23.552Z,100937.70
2023-05-11T09:06:31.145Z,100943.69
2023-05-11T09:11:34.547Z,100945.81
2023-05-11T09:16:37.967Z,100943.06
2023-05-11T09:21:41.498Z,100936.85
2023-05-11T09:26:44.936Z,100938.10
2023-05-11T09:31:48.352Z,100931.78
2023-05-11T09:36:53.822Z,100928.63
2023-05-11T09:42:17.194Z,100934.58
2023-05-11T09:47:22.724Z,100932.32
2023-05-11T09:52:25.982Z,100923.54
2023-05-11T09:57:31.077Z,100914.34
2023-05-11T10:02:35.236Z,100920.77
2023-05-11T10:07:40.216Z,100908.84
2023-05-11T10:12:43.688Z,100913.17
2023-05-11T10:17:48.742Z,100906.94
2023-05-11T10:22:54.333Z,100897.45
2023-05-11T10:27:59.147Z,100895.98
2023-05-11T10:33:02.409Z,100895.90
2023-05-11T10:38:08.350Z,100893.66
2023-05-11T10:43:26.647Z,100886.67
2023-05-11T10:48:33.353Z,100879.45
2023-05-11T10:53:39.444Z,100879.35
2023-05-11T10:58:48.602Z,100880.16
2023-05-11T11:03:59.673Z,100869.92
2023-05-11T11:09:05.759Z,100865.77
2023-05-11T11:14:10.484Z,100866.57
2023-05-11T11:19:29.561Z,100867.75
2023-05-11T11:24:53.484Z,100865.34
2023-05-11T11:30:15.818Z,100866.99
2023-05-11T11:35:45.115Z,100868.47
2023-05-11T11:40:52.878Z,100863.55
2023-05-11T11:46:00.230Z,100862.21
2023-05-11T11:51:13.167Z,100861.60
2023-05-11T11:56:16.409Z,100862.55
2023-05-11T12:01:21.132Z,100864.16
2023-05-11T12:06:41.475Z,100862.94
2023-05-11T12:11:47.956Z,100861.23
2023-05-11T12:17:13.775Z,100858.98
2023-05-11T12:22:26.052Z,100852.53
2023-05-11T12:27:29.446Z,100853.31
2023-05-11T12:32:32.953Z,100853.50
2023-05-11T12:37:46.398Z,100852.02
2023-05-11T12:42:53.881Z,100847.34
2023-05-11T12:47:58.679Z,100843.41
2023-05-11T12:53:19.342Z,100838.35
2023-05-11T12:58:22.775Z,100824.64
2023-05-11T13:03:29.502Z,100818.58
2023-05-11T13:08:33.141Z,100816.00
2023-05-11T13:13:36.308Z,100816.75
2023-05-11T13:18:39.641Z,100817.55
2023-05-11T13:23:51.979Z,100808.73
2023-05-11T13:29:09.378Z,100809.05
2023-05-11T13:34:15.349Z,100804.69
2023-05-11T13:39:19.617Z,100805.54
2023-05-11T13:44:22.835Z,100804.19
2023-05-11T13:49:26.090Z,100804.34
2023-05-11T13:54:32.108Z,100795.02
2023-05-11T13:59:35.491Z,100797.59
2023-05-11T14:04:40.559Z,100800.91
2023-05-11T14:09:44.018Z,100790.09
2023-05-11T14:14:47.270Z,100793.89
2023-05-11T14:19:50.500Z,100791.13
2023-05-11T14:24:53.755Z,100779.29
2023-05-11T14:30:02.742Z,100781.17
2023-05-11T14:35:06.258Z,100779.54
2023-05-11T14:40:10.261Z,100773.94
2023-05-11T14:45:13.429Z,100778.58
2023-05-11T14:50:16.662Z,100774.16
2023-05-11T14:55:20.262Z,100779.36
2023-05-11T15:00:23.958Z,100780.53
2023-05-11T15:05:27.923Z,100781.21
2023-05-11T15:10:31.241Z,100781.79
2023-05-11T15:15:34.616Z,100781.75
2023-05-11T15:20:38.822Z,100781.02
2023-05-11T15:25:42.495Z,100780.13
2023-05-11T15:30:48.888Z,100777.05
2023-05-11T15:35:52.226Z,100775.91
2023-05-11T15:40:55.529Z,100782.55
2023-05-11T15:45:59.047Z,100779.59
2023-05-11T15:51:03.017Z,100784.96
2023-05-11T15:56:06.483Z,100787.48
2023-05-11T16:01:09.794Z,100785.38
2023-05-11T16:06:13.188Z,100781.40
2023-05-11T16:11:18.963Z,100785.55
2023-05-11T16:16:22.484Z,100786.09
2023-05-11T16:21:26.318Z,100778.50
2023-05-11T16:26:31.509Z,100777.48
2023-05-11T16:31:35.010Z,100779.02
2023-05-11T16:36:38.493Z,100784.28
2023-05-11T16:41:41.853Z,100778.80
2023-05-11T16:46:45.252Z,100778.85
2023-05-11T16:52:08.796Z,100777.68
2023-05-11T16:57:12.191Z,100782.85
2023-05-11T17:02:15.378Z,100785.90
2023-05-11T17:07:18.742Z,100790.77
2023-05-11T17:12:22.837Z,100790.61
2023-05-11T17:17:29.285Z,100790.72
2023-05-11T17:22:35.591Z,100794.30
2023-05-11T17:27:46.483Z,100795.85
2023-05-11T17:32:49.927Z,100797.20
2023-05-11T17:38:06.416Z,100802.95
2023-05-11T17:43:10.255Z,100802.34
2023-05-11T17:48:13.977Z,100808.83
2023-05-11T17:53:20.258Z,100813.92
2023-05-11T17:58:23.527Z,100812.23
2023-05-11T18:03:27.725Z,100815.22
2023-05-11T18:08:32.991Z,100825.03
2023-05-11T18:14:01.118Z,100830.42
2023-05-11T18:19:04.789Z,100834.80
2023-05-11T18:24:09.737Z,100836.94
2023-05-11T18:29:13.476Z,100843.37
2023-05-11T18:34:17.047Z,100848.02
2023-05-11T18:39:20.436Z,100854.04
2023-05-11T18:44:23.736Z,100857.14
2023-05-11T18:49:26.980Z,100858.51
2023-05-11T18:54:30.413Z,100863.69
2023-05-11T18:59:34.149Z,100869.88
2023-05-11T19:04:38.032Z,100866.92
2023-05-11T19:09:41.418Z,100870.84
2023-05-11T19:14:46.718Z,100875.63
2023-05-11T19:19:52.265Z,100877.95
2023-05-11T19:24:55.606Z,100880.52
2023-05-11T19:29:58.961Z,100888.07
2023-05-11T19:35:02.383Z,100894.41
2023-05-11T19:40:37.980Z,100896.05
2023-05-11T19:45:33.314Z,100897.82
2023-05-11T19:50:36.466Z,100900.58
2023-05-11T19:55:40.963Z,100898.60
2023-05-11T20:00:44.846Z,100896.45
2023-05-11T20:05:48.243Z,100899.02
2023-05-11T20:10:51.685Z,100908.41
2023-05-11T20:15:55.318Z,100911.13
2023-05-11T20:20:58.797Z,100915.49
2023-05-11T20:26:02.414Z,100913.20
2023-05-11T20:31:09.834Z,100917.66
2023-05-11T20:36:13.503Z,100915.58
2023-05-11T20:41:16.846Z,100920.88
2023-05-11T20:46:20.792Z,100920.08
2023-05-11T20:51:24.434Z,100919.34
2023-05-11T20:56:28.015Z,100920.20
2023-05-11T21:01:31.498Z,100921.58
2023-05-11T21:06:37.787Z,100919.66
2023-05-11T21:11:41.281Z,100930.42
2023-05-11T21:16:44.649Z,100935.55
2023-05-11T21:21:49.738Z,100943.65
2023-05-11T21:26:53.080Z,100945.41
2023-05-11T21:31:56.256Z,100948.94
2023-05-11T21:36:59.958Z,100952.58
2023-05-11T21:42:03.355Z,100953.95
2023-05-11T21:47:06.891Z,100961.09
2023-05-11T21:52:10.561Z,100961.45
2023-05-11T21:57:13.826Z,100965.36
2023-05-11T22:02:17.522Z,100966.76
2023-05-11T22:07:21.040Z,100968.14
2023-05-11T22:12:24.471Z,100972.14
2023-05-11T22:17:27.992Z,100973.73
2023-05-11T22:22:32.250Z,100977.56
2023-05-11T22:27:36.146Z,100979.48
2023-05-11T22:32:39.426Z,100981.73
2023-05-11T22:37:42.906Z,100990.23
2023-05-11T22:42:46.191Z,100990.88
2023-05-11T22:47:49.766Z,100993.88
2023-05-11T22:52:53.235Z,100990.71
2023-05-11T22:57:56.544Z,100994.95
2023-05-11T23:03:00.333Z,100990.69
2023-05-11T23:08:04.173Z,100993.02
2023-05-11T23:13:07.331Z,100992.70
2023-05-11T23:18:10.782Z,100991.16
2023-05-11T23:23:25.353Z,100990.85
2023-05-11T23:28:28.645Z,100989.29
2023-05-11T23:33:32.911Z,100990.05
2023-05-11T23:38:39.837Z,100985.17
2023-05-11T23:43:43.120Z,100987.48
2023-05-11T23:48:46.761Z,100987.34
2023-05-11T23:53:50.755Z,100989.59
2023-05-11T23:59:14.535Z,100990.98
